FCBB/BZV METAR and TAF weather

Enter ICAO airport designator
Station Type Date Time Source
FCBB METAR 2020/01/20 13:00 UTC NOAA

FCBB 201300Z 21004KT 130V280 9999 SCT020 32/22 Q1010 NOSIG


Station Type Date Time Source
FCBB Decoded METAR 2020/01/20 13:00 UTC NOAA

Brazzaville / Maya-Maya, Congo, Republic of the (FCBB) 04-15S 015-15E 316M
Jan 20, 2020 - 08:00 AM EST / 2020.01.20 1300 UTC
Wind: from the SSW (210 degrees) at 5 MPH (4 KT) (direction variable):0
Visibility: greater than 7 mile(s):0
Sky conditions: partly cloudy
Temperature: 89 F (32 C)
Heat index: 95.0 F (35.0 C):1
Dew Point: 71 F (22 C)
Relative Humidity: 55%
Pressure (altimeter): 29.83 in. Hg (1010 hPa)
ob: FCBB 201300Z 21004KT 130V280 9999 SCT020 32/22 Q1010 NOSIG
cycle: 13

Station Type Date Time Source
FCBB TAF 2020/01/20 12:09 UTC NOAA

TAF TAF FCBB 201100Z 2012/2118 24004KT 9999 SCT016
BECMG 2012/2014 FEW018 FEW030CB PROB30 2016/2018 TS
BECMG 2019/2021 FEW016 PROB30 2003/2006 TS BKN020 FEW030CB
BECMG 2012/2014 SCT018 FEW030CB

Example: see airport list